createdAt,value
2017-12-14T00:00:39.022Z,90.24
2017-12-14T00:03:06.464Z,90.14
2017-12-14T00:05:33.941Z,89.87
2017-12-14T00:08:01.403Z,89.50
2017-12-14T00:10:34.768Z,89.25
2017-12-14T00:13:02.230Z,88.85
2017-12-14T00:15:29.707Z,88.80
2017-12-14T00:17:57.151Z,88.35
2017-12-14T00:20:24.621Z,88.33
2017-12-14T00:22:52.141Z,87.82
2017-12-14T00:25:19.048Z,87.69
2017-12-14T00:27:47.437Z,87.74
2017-12-14T00:30:14.910Z,88.00
2017-12-14T00:32:42.359Z,88.41
2017-12-14T00:35:09.803Z,88.28
2017-12-14T00:37:37.285Z,87.26
2017-12-14T00:40:04.736Z,87.64
2017-12-14T00:42:32.200Z,87.16
2017-12-14T00:44:59.639Z,86.54
2017-12-14T00:47:27.205Z,87.67
2017-12-14T00:49:54.666Z,88.21
2017-12-14T00:52:22.144Z,87.50
2017-12-14T00:54:49.612Z,86.96
2017-12-14T00:57:17.074Z,87.80
2017-12-14T00:59:44.526Z,88.12
2017-12-14T01:02:12.009Z,87.55
2017-12-14T01:04:39.461Z,87.36
2017-12-14T01:07:06.909Z,87.61
2017-12-14T01:09:34.380Z,87.47
2017-12-14T01:12:01.820Z,86.77
2017-12-14T01:14:29.310Z,87.71
2017-12-14T01:16:56.761Z,87.61
2017-12-14T01:19:24.238Z,87.93
2017-12-14T01:21:51.674Z,87.66
2017-12-14T01:24:19.145Z,87.95
2017-12-14T01:26:46.601Z,87.49
2017-12-14T01:29:14.069Z,87.13
2017-12-14T01:31:41.514Z,87.17
2017-12-14T01:34:08.989Z,87.00
2017-12-14T01:36:42.446Z,87.48
2017-12-14T01:39:09.906Z,87.66
2017-12-14T01:41:37.337Z,87.52
2017-12-14T01:44:04.794Z,86.71
2017-12-14T01:46:32.227Z,85.03
2017-12-14T01:48:59.690Z,84.58
2017-12-14T01:51:27.123Z,83.69
2017-12-14T01:53:54.549Z,83.72
2017-12-14T01:56:21.998Z,83.49
2017-12-14T01:58:49.430Z,84.04
2017-12-14T02:01:16.893Z,84.57
2017-12-14T02:03:44.340Z,84.06
2017-12-14T02:06:11.798Z,84.45
2017-12-14T02:08:39.238Z,84.75
2017-12-14T02:11:06.704Z,85.23
2017-12-14T02:13:34.157Z,84.96
2017-12-14T02:16:01.620Z,85.20
2017-12-14T02:18:29.049Z,84.23
2017-12-14T02:20:56.489Z,84.60
2017-12-14T02:23:23.949Z,84.36
2017-12-14T02:25:51.448Z,83.70
2017-12-14T02:28:18.898Z,83.43
2017-12-14T02:30:46.336Z,83.27
2017-12-14T02:33:13.787Z,82.81
2017-12-14T02:35:41.233Z,82.41
2017-12-14T02:38:08.766Z,82.36
2017-12-14T02:40:36.194Z,82.67
2017-12-14T02:43:03.655Z,82.80
2017-12-14T02:45:31.090Z,82.87
2017-12-14T02:47:58.547Z,83.89
2017-12-14T02:50:25.979Z,84.65
2017-12-14T02:52:53.404Z,85.18
2017-12-14T02:55:20.932Z,85.33
2017-12-14T02:57:48.366Z,86.22
2017-12-14T03:00:15.967Z,85.84
2017-12-14T03:02:43.407Z,85.81
2017-12-14T03:05:10.858Z,85.89
2017-12-14T03:07:38.285Z,87.30
2017-12-14T03:10:05.738Z,87.86
2017-12-14T03:12:33.177Z,88.59
2017-12-14T03:15:00.675Z,88.91
2017-12-14T03:17:28.101Z,88.63
2017-12-14T03:19:55.599Z,89.29
2017-12-14T03:22:23.039Z,90.25
2017-12-14T03:24:50.489Z,89.85
2017-12-14T03:27:17.918Z,88.10
2017-12-14T03:29:45.385Z,89.42
2017-12-14T03:32:12.819Z,89.89
2017-12-14T03:34:40.397Z,88.34
2017-12-14T03:37:07.830Z,87.40
2017-12-14T03:39:35.263Z,87.36
2017-12-14T03:42:02.773Z,85.96
2017-12-14T03:44:30.162Z,86.39
2017-12-14T03:46:57.647Z,85.22
2017-12-14T03:49:25.078Z,85.46
2017-12-14T03:51:52.539Z,85.36
2017-12-14T03:54:19.969Z,84.49
2017-12-14T03:56:47.434Z,85.85
2017-12-14T03:59:14.866Z,85.46
2017-12-14T04:01:42.318Z,84.67
2017-12-14T04:04:09.852Z,83.94
2017-12-14T04:06:37.316Z,84.17
2017-12-14T04:09:04.760Z,83.14
2017-12-14T04:11:32.240Z,82.50
2017-12-14T04:13:59.677Z,81.04
2017-12-14T04:16:27.138Z,80.33
2017-12-14T04:18:54.576Z,78.82
2017-12-14T04:21:22.001Z,79.50
2017-12-14T04:23:49.521Z,78.66
2017-12-14T04:26:16.961Z,78.20
2017-12-14T04:28:44.523Z,76.78
2017-12-14T04:31:11.959Z,76.53
2017-12-14T04:33:39.409Z,76.20
2017-12-14T04:36:06.851Z,76.04
2017-12-14T04:38:34.302Z,74.67
2017-12-14T04:41:01.735Z,75.71
2017-12-14T04:43:29.291Z,74.80
2017-12-14T04:45:56.726Z,74.63
2017-12-14T04:48:24.178Z,74.93
2017-12-14T04:50:51.611Z,78.68
2017-12-14T04:53:19.067Z,79.80
2017-12-14T04:55:46.533Z,80.58
2017-12-14T04:58:13.981Z,81.26
2017-12-14T05:00:41.432Z,80.53
2017-12-14T05:03:08.907Z,81.54
2017-12-14T05:05:36.366Z,80.39
2017-12-14T05:08:03.793Z,79.21
2017-12-14T05:10:31.259Z,78.14
2017-12-14T05:12:58.735Z,75.50
2017-12-14T05:15:26.196Z,75.84
2017-12-14T05:17:53.635Z,75.65
2017-12-14T05:20:21.096Z,73.70
2017-12-14T05:22:48.600Z,72.97
2017-12-14T05:25:16.073Z,72.93
2017-12-14T05:27:43.497Z,73.01
2017-12-14T05:30:10.950Z,71.89
2017-12-14T05:32:38.381Z,71.43
2017-12-14T05:35:05.829Z,70.64
2017-12-14T05:37:33.282Z,70.64
2017-12-14T05:40:00.710Z,71.39
2017-12-14T05:42:28.184Z,70.85
2017-12-14T05:44:55.626Z,71.12
2017-12-14T05:47:23.078Z,70.55
2017-12-14T05:49:50.515Z,70.90
2017-12-14T05:52:17.972Z,69.58
2017-12-14T05:54:45.408Z,70.13
2017-12-14T05:57:12.874Z,70.16
2017-12-14T05:59:40.302Z,70.02
2017-12-14T06:02:07.772Z,70.42
2017-12-14T06:04:35.224Z,69.58
2017-12-14T06:07:02.681Z,69.75
2017-12-14T06:09:30.132Z,70.02
2017-12-14T06:11:57.558Z,69.14
2017-12-14T06:14:25.034Z,68.76
2017-12-14T06:16:52.498Z,68.58
2017-12-14T06:19:20.005Z,68.27
2017-12-14T06:21:47.451Z,69.07
2017-12-14T06:24:15.173Z,68.74
2017-12-14T06:26:42.636Z,68.48
2017-12-14T06:29:10.085Z,68.29
2017-12-14T06:31:37.520Z,68.33
2017-12-14T06:34:05.045Z,68.68
2017-12-14T06:36:32.480Z,67.92
2017-12-14T06:38:59.947Z,67.90
2017-12-14T06:41:27.382Z,68.22
2017-12-14T06:43:54.825Z,68.63
2017-12-14T06:46:22.258Z,69.41
2017-12-14T06:48:49.724Z,69.37
2017-12-14T06:51:17.162Z,68.65
2017-12-14T06:53:44.588Z,69.01
2017-12-14T06:56:12.035Z,69.52
2017-12-14T06:58:39.466Z,69.66
2017-12-14T07:01:06.927Z,69.50
2017-12-14T07:03:34.370Z,69.58
2017-12-14T07:06:02.672Z,69.81
2017-12-14T07:08:30.164Z,69.89
2017-12-14T07:10:57.660Z,69.85
2017-12-14T07:13:26.364Z,69.66
2017-12-14T07:15:54.180Z,70.04
2017-12-14T07:18:21.681Z,69.83
2017-12-14T07:20:49.138Z,69.03
2017-12-14T07:23:16.574Z,69.22
2017-12-14T07:25:44.046Z,69.12
2017-12-14T07:28:11.487Z,68.61
2017-12-14T07:30:38.951Z,68.88
2017-12-14T07:33:06.385Z,69.41
2017-12-14T07:35:33.843Z,68.57
2017-12-14T07:38:01.273Z,69.08
2017-12-14T07:40:28.739Z,69.29
2017-12-14T07:43:07.944Z,68.65
2017-12-14T07:49:03.356Z,69.16
2017-12-14T07:51:30.835Z,68.83
2017-12-14T07:53:58.266Z,67.92
2017-12-14T07:56:25.714Z,68.15
2017-12-14T07:58:53.142Z,68.31
2017-12-14T08:01:20.583Z,67.79
2017-12-14T08:03:48.040Z,68.79
2017-12-14T08:06:15.480Z,69.27
2017-12-14T08:08:42.938Z,70.28
2017-12-14T08:11:10.385Z,71.35
2017-12-14T08:13:37.837Z,72.44
2017-12-14T08:16:05.272Z,73.29
2017-12-14T08:18:32.731Z,73.56
2017-12-14T08:21:00.162Z,73.80
2017-12-14T08:23:27.636Z,74.68
2017-12-14T08:25:55.069Z,75.51
2017-12-14T08:28:22.532Z,76.35
2017-12-14T08:30:49.967Z,76.38
2017-12-14T08:33:17.396Z,76.33
2017-12-14T08:35:44.849Z,76.94
2017-12-14T08:38:12.482Z,76.68
2017-12-14T08:40:39.929Z,76.87
2017-12-14T08:43:07.378Z,77.58
2017-12-14T08:45:34.835Z,77.41
2017-12-14T08:48:02.267Z,76.87
2017-12-14T08:50:29.737Z,76.55
2017-12-14T08:52:57.224Z,76.08
2017-12-14T08:55:24.670Z,76.60
2017-12-14T08:57:52.101Z,76.01
2017-12-14T09:00:19.588Z,75.81
2017-12-14T09:02:47.024Z,75.21
2017-12-14T09:05:14.451Z,74.79
2017-12-14T09:07:41.898Z,74.34
2017-12-14T09:10:09.335Z,74.73
2017-12-14T09:12:36.795Z,75.00
2017-12-14T09:15:04.231Z,74.30
2017-12-14T09:17:31.784Z,74.81
2017-12-14T09:19:59.238Z,74.86
2017-12-14T09:22:26.686Z,74.77
2017-12-14T09:24:54.127Z,75.23
2017-12-14T09:27:21.607Z,74.74
2017-12-14T09:29:49.052Z,74.75
2017-12-14T09:32:16.473Z,74.28
2017-12-14T09:34:43.921Z,74.71
2017-12-14T09:37:11.363Z,74.27
2017-12-14T09:39:38.845Z,74.12
2017-12-14T09:42:06.285Z,73.80
2017-12-14T09:44:33.759Z,72.84
2017-12-14T09:47:01.206Z,73.18
2017-12-14T09:49:28.653Z,72.76
2017-12-14T09:51:56.090Z,72.30
2017-12-14T09:54:23.559Z,71.96
2017-12-14T09:56:51.014Z,72.27
2017-12-14T09:59:18.504Z,72.14
2017-12-14T10:01:45.938Z,72.36
2017-12-14T10:04:13.452Z,72.95
2017-12-14T10:06:40.883Z,72.80
2017-12-14T10:09:08.334Z,72.61
2017-12-14T10:11:35.777Z,72.04
2017-12-14T10:14:03.243Z,72.73
2017-12-14T10:16:30.691Z,71.87
2017-12-14T10:18:58.141Z,72.78
2017-12-14T10:21:25.611Z,72.14
2017-12-14T10:23:53.617Z,72.50
2017-12-14T10:26:21.107Z,70.60
2017-12-14T10:28:48.598Z,70.03
2017-12-14T10:31:16.064Z,69.95
2017-12-14T10:33:43.758Z,69.50
2017-12-14T10:36:11.218Z,69.04
2017-12-14T10:38:38.667Z,69.19
2017-12-14T10:41:06.233Z,69.89
2017-12-14T10:43:33.666Z,68.96
2017-12-14T10:46:01.224Z,69.95
2017-12-14T10:48:28.676Z,69.86
2017-12-14T10:50:56.164Z,70.09
2017-12-14T10:53:23.809Z,69.32
2017-12-14T10:55:51.290Z,69.73
2017-12-14T10:58:18.792Z,69.68
2017-12-14T11:00:51.771Z,69.23
2017-12-14T11:03:19.239Z,68.87
2017-12-14T11:05:46.736Z,68.64
2017-12-14T11:08:14.284Z,68.83
2017-12-14T11:10:41.751Z,68.74
2017-12-14T11:13:09.215Z,68.93
2017-12-14T11:15:36.664Z,68.93
2017-12-14T11:18:04.132Z,69.87
2017-12-14T11:20:31.583Z,70.31
2017-12-14T11:22:59.041Z,70.44
2017-12-14T11:25:26.479Z,69.98
2017-12-14T11:27:53.944Z,70.30
2017-12-14T11:30:21.387Z,70.15
2017-12-14T11:32:48.842Z,70.74
2017-12-14T11:35:16.282Z,70.38
2017-12-14T11:37:43.749Z,69.99
2017-12-14T11:40:11.182Z,70.15
2017-12-14T11:42:38.628Z,69.85
2017-12-14T11:45:06.095Z,69.87
2017-12-14T11:47:33.542Z,70.55
2017-12-14T11:50:01.038Z,70.20
2017-12-14T11:52:28.509Z,70.61
2017-12-14T11:54:55.975Z,71.02
2017-12-14T11:57:23.431Z,71.01
2017-12-14T11:59:50.895Z,71.53
2017-12-14T12:02:18.361Z,73.18
2017-12-14T12:04:45.828Z,72.71
2017-12-14T12:07:13.271Z,72.89
2017-12-14T12:09:40.725Z,73.23
2017-12-14T12:12:10.046Z,72.17
2017-12-14T12:14:37.555Z,72.83
2017-12-14T12:17:05.011Z,73.01
2017-12-14T12:19:32.561Z,72.67
2017-12-14T12:21:59.991Z,71.93
2017-12-14T12:24:27.467Z,73.11
2017-12-14T12:26:54.974Z,74.28
2017-12-14T12:29:22.422Z,74.60
2017-12-14T12:31:49.882Z,75.24
2017-12-14T12:34:17.323Z,75.36
2017-12-14T12:36:44.782Z,76.03
2017-12-14T12:39:12.229Z,77.57
2017-12-14T12:41:39.682Z,77.22
2017-12-14T12:44:07.141Z,77.74
2017-12-14T12:46:34.606Z,79.25
2017-12-14T12:49:02.042Z,78.50
2017-12-14T12:51:29.607Z,78.65
2017-12-14T12:53:57.042Z,78.68
2017-12-14T12:56:24.508Z,78.40
2017-12-14T12:58:51.951Z,79.62
2017-12-14T13:01:19.421Z,80.01
2017-12-14T13:03:46.850Z,79.83
2017-12-14T13:06:14.305Z,80.93
2017-12-14T13:08:41.763Z,81.68
2017-12-14T13:11:09.209Z,81.24
2017-12-14T13:13:36.714Z,80.78
2017-12-14T13:16:04.155Z,80.51
2017-12-14T13:18:31.608Z,80.69
2017-12-14T13:20:59.042Z,81.40
2017-12-14T13:23:26.490Z,83.17
2017-12-14T13:25:53.923Z,83.88
2017-12-14T13:28:21.429Z,83.95
2017-12-14T13:30:48.838Z,83.08
2017-12-14T13:33:16.371Z,83.84
2017-12-14T13:35:43.813Z,84.69
2017-12-14T13:38:11.279Z,84.66
2017-12-14T13:40:38.724Z,85.73
2017-12-14T13:43:06.176Z,84.98
2017-12-14T13:45:33.639Z,86.07
2017-12-14T13:48:01.119Z,85.76
2017-12-14T13:50:28.585Z,86.19
2017-12-14T13:52:56.018Z,86.75
2017-12-14T13:55:23.474Z,87.17
2017-12-14T13:57:50.920Z,88.35
2017-12-14T14:00:18.379Z,88.77
2017-12-14T14:02:45.813Z,86.95
2017-12-14T14:05:13.275Z,88.55
2017-12-14T14:07:40.711Z,88.41
2017-12-14T14:10:08.185Z,88.05
2017-12-14T14:12:35.679Z,87.89
2017-12-14T14:15:03.133Z,88.41
2017-12-14T14:17:30.567Z,88.44
2017-12-14T14:19:58.028Z,88.78
2017-12-14T14:22:25.461Z,89.39
2017-12-14T14:24:52.928Z,88.32
2017-12-14T14:27:20.372Z,88.32
2017-12-14T14:29:47.855Z,88.67
2017-12-14T14:32:15.296Z,87.90
2017-12-14T14:34:43.039Z,87.53
2017-12-14T14:37:10.603Z,87.65
2017-12-14T14:39:38.014Z,89.08
2017-12-14T14:42:05.487Z,89.05
2017-12-14T14:44:32.918Z,89.24
2017-12-14T14:47:00.392Z,88.71
2017-12-14T14:49:27.824Z,87.83
2017-12-14T14:51:55.285Z,88.43
2017-12-14T14:54:22.722Z,88.46
2017-12-14T14:56:50.174Z,89.03
2017-12-14T14:59:17.604Z,89.02
2017-12-14T15:01:45.108Z,88.34
2017-12-14T15:04:12.546Z,88.33
2017-12-14T15:06:40.003Z,88.84
2017-12-14T15:09:07.443Z,89.56
2017-12-14T15:11:34.903Z,90.65
2017-12-14T15:14:02.375Z,90.92
2017-12-14T15:16:29.858Z,91.35
2017-12-14T15:18:57.300Z,91.60
2017-12-14T15:21:24.725Z,91.07
2017-12-14T15:23:52.192Z,91.02
2017-12-14T15:26:19.671Z,92.03
2017-12-14T15:28:47.128Z,90.86
2017-12-14T15:31:14.562Z,91.26
2017-12-14T15:33:42.013Z,91.50
2017-12-14T15:36:09.462Z,91.53
2017-12-14T15:38:36.921Z,91.26
2017-12-14T15:41:04.369Z,90.58
2017-12-14T15:43:31.831Z,89.82
2017-12-14T15:45:59.279Z,90.38
2017-12-14T15:48:26.747Z,90.23
2017-12-14T15:50:54.197Z,90.40
2017-12-14T15:53:21.666Z,90.16
2017-12-14T15:55:49.149Z,89.82
2017-12-14T15:58:16.592Z,89.42
2017-12-14T16:00:44.067Z,89.52
2017-12-14T16:03:11.512Z,89.47
2017-12-14T16:05:38.983Z,89.22
2017-12-14T16:08:06.446Z,89.61
2017-12-14T16:10:33.906Z,89.52
2017-12-14T16:13:01.442Z,89.02
2017-12-14T16:15:28.976Z,88.97
2017-12-14T16:17:56.458Z,88.90
2017-12-14T16:20:24.028Z,88.86
2017-12-14T16:22:51.466Z,89.15
2017-12-14T16:25:18.927Z,89.53
2017-12-14T16:27:46.368Z,89.29
2017-12-14T16:30:13.991Z,89.43
2017-12-14T16:32:41.462Z,89.88
2017-12-14T16:35:09.140Z,90.32
2017-12-14T16:37:36.578Z,90.13
2017-12-14T16:40:04.036Z,91.32
2017-12-14T16:42:31.472Z,91.86
2017-12-14T16:44:58.922Z,91.25
2017-12-14T16:47:26.487Z,90.87
2017-12-14T16:49:53.921Z,91.07
2017-12-14T16:52:21.422Z,90.79
2017-12-14T16:54:48.862Z,90.71
2017-12-14T16:57:16.309Z,90.98
2017-12-14T16:59:43.827Z,90.89
2017-12-14T17:02:11.274Z,90.88
2017-12-14T17:04:38.718Z,91.25
2017-12-14T17:07:06.227Z,90.88
2017-12-14T17:09:33.667Z,90.96
2017-12-14T17:12:01.119Z,91.20
2017-12-14T17:14:28.555Z,91.19
2017-12-14T17:16:56.015Z,91.50
2017-12-14T17:19:23.564Z,90.94
2017-12-14T17:21:51.027Z,90.52
2017-12-14T17:24:18.467Z,90.35
2017-12-14T17:26:45.937Z,90.40
2017-12-14T17:29:13.379Z,89.56
2017-12-14T17:31:40.903Z,89.62
2017-12-14T17:34:08.363Z,89.86
2017-12-14T17:36:35.809Z,89.66
2017-12-14T17:39:03.395Z,90.37
2017-12-14T17:41:30.892Z,90.78
2017-12-14T17:43:58.343Z,91.42
2017-12-14T17:46:25.835Z,91.67
2017-12-14T17:48:53.329Z,91.39
2017-12-14T17:51:20.780Z,91.78
2017-12-14T17:53:48.234Z,91.79
2017-12-14T17:56:16.497Z,91.92
2017-12-14T17:58:43.950Z,91.86
2017-12-14T18:01:18.295Z,91.80
2017-12-14T18:03:46.081Z,91.71
2017-12-14T18:06:13.519Z,91.96
2017-12-14T18:08:40.982Z,91.98
2017-12-14T18:11:08.434Z,91.41
2017-12-14T18:13:35.882Z,91.45
2017-12-14T18:16:03.352Z,90.81
2017-12-14T18:18:30.795Z,90.38
2017-12-14T18:20:58.259Z,90.82
2017-12-14T18:23:25.702Z,91.23
2017-12-14T18:25:53.268Z,91.01
2017-12-14T18:28:20.704Z,91.43
2017-12-14T18:30:48.162Z,90.75
2017-12-14T18:33:15.684Z,90.83
2017-12-14T18:35:43.136Z,91.30
2017-12-14T18:38:10.679Z,91.26
2017-12-14T18:40:38.139Z,90.11
2017-12-14T18:43:05.601Z,89.89
2017-12-14T18:45:33.088Z,90.33
2017-12-14T18:48:00.566Z,90.24
2017-12-14T18:50:28.035Z,89.60
2017-12-14T18:52:55.572Z,89.83
2017-12-14T18:55:23.143Z,89.83
2017-12-14T18:57:50.655Z,89.90
2017-12-14T19:00:18.099Z,90.16
2017-12-14T19:02:45.567Z,89.28
2017-12-14T19:05:13.073Z,89.87
2017-12-14T19:07:40.590Z,89.67
2017-12-14T19:10:08.040Z,89.42
2017-12-14T19:12:35.759Z,89.72
2017-12-14T19:15:03.216Z,89.90
2017-12-14T19:17:30.680Z,89.54
2017-12-14T19:19:58.124Z,89.74
2017-12-14T19:22:25.581Z,89.13
2017-12-14T19:24:53.108Z,88.56
2017-12-14T19:27:23.791Z,88.91
2017-12-14T19:29:51.275Z,89.04
2017-12-14T19:32:18.743Z,88.57
2017-12-14T19:34:46.199Z,88.16
2017-12-14T19:37:13.686Z,88.07
2017-12-14T19:39:41.155Z,88.11
2017-12-14T19:42:08.664Z,88.01
2017-12-14T19:44:36.132Z,88.29
2017-12-14T19:47:03.637Z,88.91
2017-12-14T19:49:31.088Z,88.64
2017-12-14T19:51:58.527Z,88.36
2017-12-14T19:54:25.989Z,88.50
2017-12-14T19:56:53.450Z,89.02
2017-12-14T19:59:20.907Z,88.17
2017-12-14T20:01:48.415Z,89.05
2017-12-14T20:04:15.871Z,88.77
2017-12-14T20:06:43.366Z,88.37
2017-12-14T20:09:10.827Z,88.43
2017-12-14T20:11:38.346Z,88.34
2017-12-14T20:14:05.810Z,87.95
2017-12-14T20:16:33.765Z,88.30
2017-12-14T20:19:01.503Z,88.22
2017-12-14T20:21:28.942Z,87.45
2017-12-14T20:23:56.402Z,86.20
2017-12-14T20:26:23.835Z,86.79
2017-12-14T20:28:51.299Z,86.66
2017-12-14T20:31:18.750Z,87.01
2017-12-14T20:33:46.215Z,87.38
2017-12-14T20:36:13.680Z,87.06
2017-12-14T20:38:41.120Z,86.93
2017-12-14T20:41:08.570Z,87.01
2017-12-14T20:43:36.002Z,87.58
2017-12-14T20:46:03.568Z,86.56
2017-12-14T20:48:31.022Z,86.57
2017-12-14T20:50:58.579Z,87.47
2017-12-14T20:53:26.014Z,86.40
2017-12-14T20:55:53.509Z,87.49
2017-12-14T20:58:20.958Z,86.91
2017-12-14T21:00:48.426Z,86.61
2017-12-14T21:03:15.894Z,86.52
2017-12-14T21:05:43.371Z,87.00
2017-12-14T21:08:10.825Z,87.14
2017-12-14T21:10:38.321Z,87.46
2017-12-14T21:13:05.789Z,87.88
2017-12-14T21:15:33.251Z,87.57
2017-12-14T21:18:00.711Z,87.27
2017-12-14T21:20:28.176Z,87.02
2017-12-14T21:22:55.617Z,87.03
2017-12-14T21:25:23.070Z,87.48
2017-12-14T21:27:50.527Z,87.86
2017-12-14T21:30:17.992Z,87.88
2017-12-14T21:32:45.476Z,88.14
2017-12-14T21:35:12.939Z,87.96
2017-12-14T21:37:40.419Z,87.34
2017-12-14T21:40:07.906Z,87.43
2017-12-14T21:42:35.366Z,88.71
2017-12-14T21:45:02.818Z,89.28
2017-12-14T21:47:30.308Z,89.35
2017-12-14T21:49:57.787Z,89.53
2017-12-14T21:52:25.251Z,90.32
2017-12-14T21:54:52.703Z,89.99
2017-12-14T21:57:20.174Z,90.38
2017-12-14T21:59:47.611Z,89.64
2017-12-14T22:02:15.115Z,89.92
2017-12-14T22:04:42.567Z,91.19
2017-12-14T22:07:10.028Z,90.88
2017-12-14T22:09:37.517Z,90.61
2017-12-14T22:12:05.410Z,91.79
2017-12-14T22:14:32.939Z,91.91
2017-12-14T22:17:00.365Z,92.17
2017-12-14T22:19:27.920Z,92.16
2017-12-14T22:21:55.361Z,91.81
2017-12-14T22:24:22.823Z,92.21
2017-12-14T22:26:50.255Z,92.51
2017-12-14T22:29:17.731Z,92.00
2017-12-14T22:31:45.160Z,92.67
2017-12-14T22:34:12.617Z,93.07
2017-12-14T22:36:40.115Z,93.00
2017-12-14T22:39:07.572Z,93.14
2017-12-14T22:41:35.011Z,93.72
2017-12-14T22:44:02.466Z,93.28
2017-12-14T22:46:29.907Z,93.23
2017-12-14T22:48:57.386Z,93.16
2017-12-14T22:51:24.822Z,93.16
2017-12-14T22:53:52.282Z,94.03
2017-12-14T22:56:19.716Z,94.06
2017-12-14T22:58:47.166Z,94.31
2017-12-14T23:01:14.607Z,93.73
2017-12-14T23:03:42.070Z,92.79
2017-12-14T23:06:09.508Z,92.87
2017-12-14T23:08:36.942Z,93.17
2017-12-14T23:11:04.404Z,93.06
2017-12-14T23:13:31.838Z,93.76
2017-12-14T23:15:59.299Z,92.98
2017-12-14T23:18:26.728Z,92.66
2017-12-14T23:20:54.183Z,92.55
2017-12-14T23:23:21.618Z,92.52
2017-12-14T23:25:49.713Z,92.57
2017-12-14T23:28:17.141Z,92.87
2017-12-14T23:30:44.643Z,93.16
2017-12-14T23:33:12.086Z,93.43
2017-12-14T23:35:39.536Z,93.81
2017-12-14T23:38:06.966Z,93.90
2017-12-14T23:40:34.442Z,93.93
2017-12-14T23:43:01.902Z,93.98
2017-12-14T23:45:29.375Z,93.53
2017-12-14T23:47:56.827Z,93.32
2017-12-14T23:50:24.292Z,93.20
2017-12-14T23:52:51.728Z,93.19
2017-12-14T23:55:19.240Z,93.74
2017-12-14T23:57:46.701Z,93.32
